Time;durP1;ratioP1;P1;durP2;ratioP2;P2;SDS_P1;SDS_P2;PMS_P1;PMS_P2;Temp;Humidity;BMP_temperature;BMP_pressure;BME280_temperature;BME280_humidity;BME280_pressure;Samples;Min_cycle;Max_cycle;Signal;HPM_P1;HPM_P2
2022/11/15 00:02:21;;;;;;;38.67;21.67;;;7.40;99.90;;;;;;6131384;23;20025;-77
2022/11/15 00:04:47;;;;;;;42.50;22.45;;;7.40;99.90;;;;;;6157482;23;20028;-77
2022/11/15 00:07:12;;;;;;;39.97;22.73;;;7.40;99.90;;;;;;6131058;23;20021;-77
2022/11/15 00:09:38;;;;;;;35.15;20.40;;;7.50;99.90;;;;;;6131014;23;20347;-77
2022/11/15 00:12:04;;;;;;;36.60;22.02;;;7.50;99.90;;;;;;6130947;23;20021;-77
2022/11/15 00:14:29;;;;;;;32.05;21.38;;;7.40;99.90;;;;;;6130689;23;20021;-77
2022/11/15 00:16:55;;;;;;;33.97;21.35;;;7.50;99.90;;;;;;6157240;23;20013;-77
2022/11/15 00:19:20;;;;;;;35.42;22.05;;;7.40;99.90;;;;;;6130875;23;20080;-77
2022/11/15 00:21:46;;;;;;;36.60;22.02;;;7.40;99.90;;;;;;6130914;23;20040;-77
2022/11/15 00:24:12;;;;;;;39.53;22.33;;;7.40;99.90;;;;;;6130862;23;20028;-77
2022/11/15 00:26:37;;;;;;;36.42;21.23;;;7.40;99.90;;;;;;6130684;23;20018;-77
2022/11/15 00:29:03;;;;;;;37.92;22.95;;;7.40;99.90;;;;;;6130802;23;20025;-77
2022/11/15 00:31:28;;;;;;;35.33;21.05;;;7.40;99.90;;;;;;6130852;23;20101;-77
2022/11/15 00:33:54;;;;;;;35.17;21.83;;;7.40;99.90;;;;;;6130742;23;20017;-77
2022/11/15 00:36:20;;;;;;;38.38;22.20;;;7.40;99.90;;;;;;6130645;23;20131;-77
2022/11/15 00:38:45;;;;;;;32.88;21.33;;;7.30;99.90;;;;;;6131082;23;20333;-77
2022/11/15 00:41:11;;;;;;;33.20;20.73;;;7.40;99.90;;;;;;6130679;23;20017;-77
2022/11/15 00:43:37;;;;;;;33.65;20.17;;;7.20;99.90;;;;;;6130415;23;20032;-77
2022/11/15 00:46:03;;;;;;;35.97;21.55;;;7.30;99.90;;;;;;6130631;23;20346;-77
2022/11/15 00:48:29;;;;;;;31.58;20.13;;;7.20;99.90;;;;;;6130598;23;20017;-77
2022/11/15 00:50:54;;;;;;;34.05;20.17;;;7.10;99.90;;;;;;6130550;23;20014;-77
2022/11/15 00:53:20;;;;;;;34.20;21.13;;;7.20;99.90;;;;;;6130346;23;20028;-77
2022/11/15 00:55:46;;;;;;;32.63;20.08;;;7.10;99.90;;;;;;6156918;23;20018;-77
2022/11/15 00:58:12;;;;;;;34.58;21.02;;;7.10;99.90;;;;;;6130305;23;20021;-77
2022/11/15 01:00:37;;;;;;;33.33;20.70;;;7.10;99.90;;;;;;6156507;23;20016;-77
2022/11/15 01:03:03;;;;;;;34.35;21.30;;;7.00;99.90;;;;;;6130420;23;20025;-77
2022/11/15 01:05:29;;;;;;;34.75;20.67;;;7.00;99.90;;;;;;6130513;23;20443;-77
2022/11/15 01:07:55;;;;;;;35.80;20.55;;;7.00;99.90;;;;;;6130496;23;20013;-77
2022/11/15 01:10:22;;;;;;;35.67;21.20;;;7.10;99.90;;;;;;6130468;23;20097;-77
2022/11/15 01:12:49;;;;;;;33.45;19.15;;;7.00;99.90;;;;;;6156999;23;20064;-77
2022/11/15 01:15:15;;;;;;;32.25;19.75;;;7.10;99.90;;;;;;6130177;23;20498;-77
2022/11/15 01:17:40;;;;;;;33.63;20.98;;;7.10;99.90;;;;;;6130145;23;20064;-77
2022/11/15 01:20:07;;;;;;;34.20;19.50;;;7.10;99.90;;;;;;6156673;23;20060;-77
2022/11/15 01:22:32;;;;;;;29.92;20.10;;;7.10;99.90;;;;;;6130249;23;20028;-77
2022/11/15 01:24:58;;;;;;;33.92;21.55;;;7.10;99.90;;;;;;6130257;23;20014;-77
2022/11/15 01:27:24;;;;;;;32.92;20.00;;;7.10;99.90;;;;;;6156367;23;20126;-77
2022/11/15 01:29:50;;;;;;;35.70;20.50;;;7.10;99.90;;;;;;6130215;23;20020;-77
2022/11/15 01:32:16;;;;;;;34.90;20.38;;;7.20;99.90;;;;;;6156638;23;20013;-77
2022/11/15 01:34:41;;;;;;;35.60;21.48;;;7.20;99.90;;;;;;6130138;23;20056;-77
2022/11/15 01:37:07;;;;;;;33.42;21.60;;;7.20;99.90;;;;;;6130083;23;20021;-77
2022/11/15 01:39:33;;;;;;;32.20;20.90;;;7.30;99.90;;;;;;6156278;23;20104;-77
2022/11/15 01:41:58;;;;;;;31.50;20.48;;;7.20;99.90;;;;;;6130073;23;20316;-77
2022/11/15 01:44:46;;;;;;;31.25;19.35;;;7.30;99.90;;;;;;6156537;23;20018;-77
2022/11/15 01:47:37;;;;;;;32.35;20.65;;;7.30;99.90;;;;;;6156274;23;20028;-77
2022/11/15 01:50:06;;;;;;;34.08;19.45;;;7.30;99.90;;;;;;6156561;23;20018;-77
2022/11/15 01:52:34;;;;;;;33.70;19.92;;;7.30;99.90;;;;;;6154666;23;20337;-77
2022/11/15 01:55:22;;;;;;;31.67;20.33;;;7.30;99.90;;;;;;6129685;23;20017;-77
2022/11/15 01:57:52;;;;;;;32.53;20.80;;;7.40;99.90;;;;;;6129888;23;20021;-77
2022/11/15 02:00:18;;;;;;;32.97;20.92;;;7.40;99.90;;;;;;6129940;23;20022;-77
2022/11/15 02:02:44;;;;;;;33.13;21.08;;;7.30;99.90;;;;;;6129893;23;20096;-77
2022/11/15 02:05:10;;;;;;;32.63;21.55;;;7.40;99.90;;;;;;6130032;23;20014;-77
2022/11/15 02:07:37;;;;;;;30.52;19.63;;;7.40;99.90;;;;;;6156502;23;20025;-77
2022/11/15 02:10:09;;;;;;;34.70;21.25;;;7.30;99.90;;;;;;6129894;23;20036;-77
2022/11/15 02:12:35;;;;;;;34.50;22.17;;;7.40;99.90;;;;;;6130107;23;20092;-77
2022/11/15 02:15:02;;;;;;;35.30;21.10;;;7.40;99.90;;;;;;6155944;23;20091;-77
2022/11/15 02:17:51;;;;;;;32.25;21.02;;;7.40;99.90;;;;;;6129871;23;20021;-77
2022/11/15 02:20:38;;;;;;;34.42;21.65;;;7.40;99.90;;;;;;6129910;23;20033;-77
2022/11/15 02:23:20;;;;;;;35.20;21.48;;;7.40;99.90;;;;;;6129991;23;20517;-77
2022/11/15 02:26:10;;;;;;;37.30;22.93;;;7.40;99.90;;;;;;6130059;23;20028;-77
2022/11/15 02:28:45;;;;;;;36.60;22.63;;;7.40;99.90;;;;;;6129950;23;20256;-77
2022/11/15 02:31:51;;;;;;;33.47;21.73;;;7.30;99.90;;;;;;6129984;23;20437;-77
2022/11/15 02:34:29;;;;;;;34.15;21.95;;;7.30;99.90;;;;;;6130781;23;20076;-77
2022/11/15 02:37:05;;;;;;;39.15;22.85;;;7.30;99.90;;;;;;6129860;23;20100;-77
2022/11/15 02:39:48;;;;;;;38.78;23.30;;;7.20;99.90;;;;;;6129960;23;20398;-77
2022/11/15 02:45:12;;;;;;;33.30;20.67;;;7.20;99.90;;;;;;6129836;23;20024;-77
2022/11/15 02:47:46;;;;;;;32.88;20.33;;;7.20;99.90;;;;;;6155881;23;20068;-77
2022/11/15 02:50:16;;;;;;;33.35;20.80;;;7.20;99.90;;;;;;6129978;23;20056;-77
2022/11/15 02:52:45;;;;;;;37.03;20.27;;;7.20;99.90;;;;;;6156212;23;20056;-77
2022/11/15 02:55:29;;;;;;;33.13;20.83;;;7.10;99.90;;;;;;6156601;23;20446;-77
2022/11/15 02:58:12;;;;;;;38.53;21.40;;;7.10;99.90;;;;;;6129667;23;20024;-77
2022/11/15 03:01:02;;;;;;;33.70;20.13;;;7.20;99.90;;;;;;6156235;23;20085;-77
2022/11/15 03:03:43;;;;;;;36.95;21.52;;;7.10;99.90;;;;;;6129795;23;20123;-77
2022/11/15 03:06:21;;;;;;;30.85;18.95;;;7.10;99.90;;;;;;6130412;23;20013;-77
2022/11/15 03:09:10;;;;;;;30.25;18.42;;;7.10;99.90;;;;;;6131461;23;20030;-77
2022/11/15 03:11:41;;;;;;;31.05;17.58;;;7.00;99.90;;;;;;6115864;23;20037;-77
2022/11/15 03:14:30;;;;;;;29.77;17.05;;;7.00;99.90;;;;;;6131310;23;20097;-77
2022/11/15 03:17:26;;;;;;;32.17;17.85;;;7.00;99.90;;;;;;6157864;23;20028;-77
2022/11/15 03:19:55;;;;;;;29.30;16.50;;;7.00;99.90;;;;;;6131235;23;20022;-77
2022/11/15 03:22:24;;;;;;;33.33;18.17;;;7.00;99.90;;;;;;6131368;23;20072;-77
2022/11/15 03:24:57;;;;;;;27.63;16.92;;;7.00;99.90;;;;;;6131443;23;20021;-77
2022/11/15 03:27:27;;;;;;;35.00;18.30;;;7.00;99.90;;;;;;6157627;23;20017;-77
2022/11/15 03:29:59;;;;;;;33.90;18.25;;;7.00;99.90;;;;;;6131346;23;20053;-77
2022/11/15 03:32:29;;;;;;;33.30;18.55;;;7.00;99.90;;;;;;6131310;23;20338;-77
2022/11/15 03:35:10;;;;;;;37.38;18.05;;;7.00;99.90;;;;;;6157547;23;20017;-77
2022/11/15 03:38:00;;;;;;;34.30;18.45;;;7.00;99.90;;;;;;6131033;23;20052;-77
2022/11/15 03:40:39;;;;;;;36.47;19.85;;;7.00;99.90;;;;;;6130208;23;20018;-77
2022/11/15 03:43:22;;;;;;;37.50;18.25;;;7.00;99.90;;;;;;6157521;23;20021;-77
2022/11/15 03:45:59;;;;;;;41.70;20.23;;;7.00;99.90;;;;;;6157592;23;20046;-77
2022/11/15 03:48:30;;;;;;;39.50;19.88;;;6.90;99.90;;;;;;6131180;23;20513;-77
2022/11/15 03:50:56;;;;;;;40.38;19.83;;;7.00;99.90;;;;;;6131130;23;20017;-77
2022/11/15 03:53:22;;;;;;;34.60;19.23;;;7.00;99.90;;;;;;6131168;23;20022;-77
2022/11/15 03:55:47;;;;;;;39.15;19.38;;;7.00;99.90;;;;;;6131167;23;20018;-77
2022/11/15 03:58:13;;;;;;;40.15;18.95;;;7.10;99.90;;;;;;6130993;23;20025;-77
2022/11/15 04:00:38;;;;;;;39.90;20.30;;;7.00;99.90;;;;;;6131113;23;20422;-77
2022/11/15 04:03:04;;;;;;;46.15;21.40;;;7.00;99.90;;;;;;6157061;23;20513;-77
2022/11/15 04:05:30;;;;;;;44.50;20.17;;;7.00;99.90;;;;;;6157060;23;20028;-76
2022/11/15 04:07:55;;;;;;;41.55;20.00;;;7.00;99.90;;;;;;6157133;23;20017;-77
2022/11/15 04:10:21;;;;;;;46.05;22.05;;;7.10;99.90;;;;;;6131051;23;20092;-77
2022/11/15 04:12:47;;;;;;;42.60;20.40;;;7.10;99.90;;;;;;6130966;23;20017;-77
2022/11/15 04:15:19;;;;;;;48.35;21.52;;;7.10;99.90;;;;;;6151914;23;20021;-76
2022/11/15 04:17:49;;;;;;;41.55;21.70;;;7.00;99.90;;;;;;6159849;23;20480;-77
2022/11/15 04:25:55;;;;;;;44.42;20.90;;;7.00;99.90;;;;;;6160252;23;20345;-77
2022/11/15 04:28:22;;;;;;;48.30;20.70;;;7.10;99.90;;;;;;6160182;23;20021;-77
2022/11/15 04:30:47;;;;;;;43.67;20.25;;;7.10;99.90;;;;;;6186878;23;20041;-77
2022/11/15 04:33:13;;;;;;;43.28;20.70;;;7.10;99.90;;;;;;6160284;23;20032;-77
2022/11/15 04:35:39;;;;;;;45.78;22.25;;;7.10;99.90;;;;;;6187002;23;20342;-77
2022/11/15 04:38:07;;;;;;;43.50;20.77;;;7.10;99.90;;;;;;6160051;23;20471;-77
2022/11/15 04:40:33;;;;;;;46.20;22.17;;;7.10;99.90;;;;;;6186793;23;20079;-77
2022/11/15 04:42:59;;;;;;;46.72;22.10;;;7.20;99.90;;;;;;6186776;23;20040;-77
2022/11/15 04:45:25;;;;;;;52.58;21.98;;;7.10;99.90;;;;;;6186827;23;20024;-77
2022/11/15 04:47:51;;;;;;;49.60;21.92;;;7.20;99.90;;;;;;6187115;23;20017;-77
2022/11/15 04:50:16;;;;;;;59.83;23.92;;;7.20;99.90;;;;;;6186746;23;20015;-77
2022/11/15 04:52:49;;;;;;;51.75;21.83;;;7.20;99.90;;;;;;6186735;23;20016;-77
2022/11/15 04:55:15;;;;;;;54.88;21.67;;;7.20;99.90;;;;;;6160182;23;20044;-77
2022/11/15 04:57:41;;;;;;;54.70;22.20;;;7.20;99.90;;;;;;6159977;23;20021;-77
2022/11/15 05:00:09;;;;;;;49.28;20.90;;;7.30;99.90;;;;;;6186297;23;20529;-77
2022/11/15 05:05:19;;;;;;;51.17;22.63;;;7.30;99.90;;;;;;6159977;23;20413;-77
2022/11/15 05:07:45;;;;;;;52.72;23.13;;;7.30;99.90;;;;;;6186224;23;20021;-77
2022/11/15 05:10:11;;;;;;;47.63;21.73;;;7.30;99.90;;;;;;6159884;23;20473;-77
2022/11/15 05:12:37;;;;;;;50.42;21.40;;;7.30;99.90;;;;;;6161082;23;20343;-77
2022/11/15 05:15:03;;;;;;;49.78;21.92;;;7.30;99.90;;;;;;6139625;23;20021;-77
2022/11/15 05:17:29;;;;;;;50.33;22.40;;;7.30;99.90;;;;;;6155873;23;20025;-77
2022/11/15 05:19:55;;;;;;;47.17;21.65;;;7.40;99.90;;;;;;6129165;23;20320;-77
2022/11/15 05:22:20;;;;;;;50.42;21.20;;;7.40;99.90;;;;;;6155608;23;20021;-77
2022/11/15 05:24:46;;;;;;;52.13;23.27;;;7.30;99.90;;;;;;6155227;23;20129;-77
2022/11/15 05:27:12;;;;;;;52.83;21.50;;;7.40;99.90;;;;;;6155538;23;20052;-77
2022/11/15 05:29:37;;;;;;;47.28;22.00;;;7.40;99.90;;;;;;6129030;23;20100;-77
2022/11/15 05:32:06;;;;;;;44.70;21.17;;;7.40;99.90;;;;;;6129197;23;20097;-77
2022/11/15 05:34:32;;;;;;;47.58;22.92;;;7.40;99.90;;;;;;6155270;23;20017;-77
2022/11/15 05:36:58;;;;;;;46.22;22.20;;;7.40;99.90;;;;;;6129033;23;20092;-77
2022/11/15 05:39:25;;;;;;;51.63;21.67;;;7.40;99.90;;;;;;6155530;23;20018;-77
2022/11/15 05:42:02;;;;;;;52.08;21.60;;;7.50;99.90;;;;;;6129105;23;20021;-76
2022/11/15 05:44:28;;;;;;;49.75;21.90;;;7.50;99.90;;;;;;6129203;23;20037;-77
2022/11/15 05:46:55;;;;;;;46.85;21.35;;;7.50;99.90;;;;;;6129095;23;20025;-77
2022/11/15 05:49:26;;;;;;;50.47;21.52;;;7.50;99.90;;;;;;6155112;23;20017;-77
2022/11/15 05:51:53;;;;;;;59.97;23.13;;;7.60;99.90;;;;;;6129020;23;20017;-77
2022/11/15 05:54:21;;;;;;;56.80;24.48;;;7.60;99.90;;;;;;6155372;23;20096;-77
2022/11/15 05:56:48;;;;;;;50.50;22.98;;;7.60;99.90;;;;;;6128882;23;20032;-77
2022/11/15 05:59:14;;;;;;;51.63;22.63;;;7.70;99.90;;;;;;6128685;23;20052;-77
2022/11/15 06:01:40;;;;;;;54.65;23.23;;;7.60;99.90;;;;;;6128958;23;20017;-77
2022/11/15 06:04:05;;;;;;;53.90;21.85;;;7.70;99.90;;;;;;6128866;23;20049;-77
2022/11/15 06:06:31;;;;;;;56.63;24.27;;;7.70;99.90;;;;;;6128792;23;20029;-77
2022/11/15 06:08:57;;;;;;;55.67;22.75;;;7.70;99.90;;;;;;6155196;23;20017;-77
2022/11/15 06:11:22;;;;;;;56.13;23.48;;;7.70;99.90;;;;;;6154911;23;20028;-77
2022/11/15 06:13:48;;;;;;;61.13;23.80;;;7.80;99.90;;;;;;6108513;23;1088971;-77
2022/11/15 06:16:13;;;;;;;63.10;25.35;;;7.80;99.90;;;;;;6130104;23;20036;-77
2022/11/15 06:18:39;;;;;;;71.97;24.63;;;7.80;99.90;;;;;;6156461;23;20101;-77
2022/11/15 06:21:05;;;;;;;57.55;23.60;;;7.80;99.90;;;;;;6130067;23;20513;-77
2022/11/15 06:23:32;;;;;;;64.40;25.13;;;7.90;99.90;;;;;;6156372;23;20009;-77
2022/11/15 06:25:59;;;;;;;69.95;26.73;;;7.80;99.90;;;;;;6130012;23;20029;-77
2022/11/15 06:28:27;;;;;;;71.32;26.55;;;7.90;99.90;;;;;;6129997;23;20014;-77
2022/11/15 06:30:53;;;;;;;69.63;26.85;;;8.00;99.90;;;;;;6156331;23;20112;-77
2022/11/15 06:33:19;;;;;;;75.95;26.92;;;7.90;99.90;;;;;;6156287;23;20053;-77
2022/11/15 06:35:44;;;;;;;70.57;27.63;;;7.90;99.90;;;;;;6156388;23;20047;-77
2022/11/15 06:38:10;;;;;;;73.95;27.23;;;7.90;99.90;;;;;;6129782;23;20465;-77
2022/11/15 06:40:39;;;;;;;73.65;27.20;;;8.00;99.90;;;;;;6156287;23;20019;-77
2022/11/15 06:43:06;;;;;;;67.45;27.80;;;8.00;99.90;;;;;;6158203;23;20041;-77
2022/11/15 06:45:32;;;;;;;86.55;28.00;;;8.10;99.90;;;;;;6131637;23;20025;-77
2022/11/15 06:48:00;;;;;;;84.82;28.13;;;8.10;99.90;;;;;;6131569;23;20032;-77
2022/11/15 06:50:26;;;;;;;87.05;29.77;;;8.10;99.90;;;;;;6158072;23;20052;-77
2022/11/15 06:52:52;;;;;;;80.30;28.45;;;8.20;99.90;;;;;;6131705;23;20021;-77
2022/11/15 06:55:18;;;;;;;79.32;28.30;;;8.20;99.90;;;;;;6131703;23;20057;-77
2022/11/15 06:57:51;;;;;;;104.15;33.28;;;8.20;99.90;;;;;;6131527;23;20021;-77
2022/11/15 07:00:18;;;;;;;85.43;27.95;;;8.30;99.90;;;;;;6131693;23;20024;-77
2022/11/15 07:02:44;;;;;;;93.93;30.63;;;8.30;99.90;;;;;;6157766;23;20018;-77
2022/11/15 07:05:11;;;;;;;86.40;30.40;;;8.30;99.90;;;;;;6157630;23;20442;-77
2022/11/15 07:07:36;;;;;;;105.95;32.30;;;8.40;99.90;;;;;;6131285;23;20010;-77
2022/11/15 07:10:02;;;;;;;96.82;30.25;;;8.40;99.90;;;;;;6131085;23;20017;-77
2022/11/15 07:12:28;;;;;;;98.82;31.58;;;8.50;99.90;;;;;;6155775;23;20018;-77
2022/11/15 07:14:53;;;;;;;110.35;32.28;;;8.50;99.90;;;;;;6157016;23;20029;-77
2022/11/15 07:17:19;;;;;;;112.28;34.00;;;8.50;99.90;;;;;;6130990;23;20014;-77
2022/11/15 07:19:44;;;;;;;114.25;33.90;;;8.60;99.90;;;;;;6131056;23;20026;-77
2022/11/15 07:22:10;;;;;;;110.13;34.97;;;8.60;99.90;;;;;;6130805;23;20013;-77
2022/11/15 07:24:36;;;;;;;109.03;36.55;;;8.60;99.90;;;;;;6130604;23;20021;-78
2022/11/15 07:27:01;;;;;;;97.65;34.70;;;8.70;99.90;;;;;;6130399;23;20377;-77
2022/11/15 07:29:27;;;;;;;115.28;34.28;;;8.70;99.90;;;;;;6156537;23;20393;-77
2022/11/15 07:31:53;;;;;;;114.00;35.35;;;8.70;99.90;;;;;;6131496;23;20046;-77
2022/11/15 07:34:18;;;;;;;117.63;34.88;;;8.70;99.90;;;;;;6157577;23;20016;-77
2022/11/15 07:36:44;;;;;;;113.55;33.75;;;8.80;99.90;;;;;;6157191;23;20461;-77
2022/11/15 07:39:11;;;;;;;119.38;37.95;;;8.70;99.90;;;;;;6131198;23;20025;-77
2022/11/15 07:41:38;;;;;;;99.50;33.92;;;8.90;99.90;;;;;;6157551;23;20009;-77
2022/11/15 07:44:04;;;;;;;120.18;35.78;;;8.90;99.90;;;;;;6157575;23;20013;-78
2022/11/15 07:46:30;;;;;;;100.53;34.83;;;8.90;99.90;;;;;;6157546;23;20345;-78
2022/11/15 07:48:56;;;;;;;121.68;37.45;;;9.00;99.90;;;;;;6157077;23;20026;-81
2022/11/15 07:51:22;;;;;;;126.80;37.75;;;9.00;99.90;;;;;;6131061;23;20045;-79
2022/11/15 07:53:48;;;;;;;121.38;37.45;;;9.10;99.90;;;;;;6157482;23;20434;-78
2022/11/15 07:56:13;;;;;;;122.80;36.10;;;9.10;99.90;;;;;;6157112;23;20350;-77
2022/11/15 07:58:39;;;;;;;125.90;38.10;;;9.10;99.90;;;;;;6130870;23;20064;-77
2022/11/15 08:01:07;;;;;;;115.32;36.70;;;9.20;99.90;;;;;;6156083;23;20017;-77
2022/11/15 08:03:33;;;;;;;121.88;38.75;;;9.20;99.90;;;;;;6157189;23;20018;-77
2022/11/15 08:05:58;;;;;;;110.57;36.35;;;9.30;99.90;;;;;;6157152;23;20013;-77
2022/11/15 08:08:24;;;;;;;116.40;37.63;;;9.30;99.90;;;;;;6157081;23;20021;-77
2022/11/15 08:10:50;;;;;;;117.07;38.65;;;9.40;99.90;;;;;;6156604;23;20029;-76
2022/11/15 08:13:16;;;;;;;105.45;36.33;;;9.40;99.90;;;;;;6156729;23;20119;-77
2022/11/15 08:15:43;;;;;;;110.20;36.95;;;9.40;99.90;;;;;;6156415;23;20018;-77
2022/11/15 08:18:15;;;;;;;109.15;36.88;;;9.50;99.90;;;;;;6156942;23;20024;-77
2022/11/15 08:20:41;;;;;;;113.03;39.05;;;9.50;99.90;;;;;;6156829;23;20017;-77
2022/11/15 08:23:08;;;;;;;102.82;36.60;;;9.60;99.90;;;;;;6156914;23;20021;-77
2022/11/15 08:25:34;;;;;;;100.47;36.10;;;9.60;99.90;;;;;;6156474;23;20342;-77
2022/11/15 08:28:03;;;;;;;113.70;40.33;;;9.60;99.90;;;;;;6156850;23;20009;-77
2022/11/15 08:30:29;;;;;;;116.10;39.38;;;9.60;99.90;;;;;;6130409;23;20024;-77
2022/11/15 08:32:57;;;;;;;102.57;36.30;;;9.70;99.90;;;;;;6130432;23;20017;-77
2022/11/15 08:35:24;;;;;;;104.30;35.63;;;9.70;99.90;;;;;;6130413;23;20100;-77
2022/11/15 08:37:51;;;;;;;90.65;34.50;;;9.70;99.90;;;;;;6129202;23;20025;-76
2022/11/15 08:40:18;;;;;;;97.18;35.00;;;9.80;99.90;;;;;;6130161;23;20018;-77
2022/11/15 08:42:46;;;;;;;91.20;35.85;;;9.80;99.90;;;;;;6129607;23;20089;-77
2022/11/15 08:45:12;;;;;;;92.45;34.45;;;9.90;99.90;;;;;;6130245;23;20018;-77
2022/11/15 08:47:38;;;;;;;94.88;34.55;;;9.80;99.90;;;;;;6130256;23;20027;-77
2022/11/15 08:50:04;;;;;;;86.00;34.45;;;9.90;99.90;;;;;;6156643;23;20009;-77
2022/11/15 08:52:30;;;;;;;83.50;32.10;;;9.90;99.90;;;;;;6129963;23;20538;-77
2022/11/15 08:54:55;;;;;;;87.70;35.08;;;10.00;99.90;;;;;;6130558;23;20092;-77
2022/11/15 08:57:21;;;;;;;90.78;35.05;;;10.00;99.90;;;;;;6155860;23;20443;-77
2022/11/15 08:59:47;;;;;;;89.03;33.33;;;10.00;99.90;;;;;;6156552;23;20017;-77
2022/11/15 09:02:14;;;;;;;96.40;35.13;;;10.10;99.90;;;;;;6130140;23;20446;-77
2022/11/15 09:04:43;;;;;;;82.40;35.17;;;10.10;99.90;;;;;;6129977;23;20079;-77
2022/11/15 09:07:10;;;;;;;74.63;32.80;;;10.10;99.90;;;;;;6130084;23;20013;-77
2022/11/15 09:09:36;;;;;;;87.53;32.80;;;10.10;99.90;;;;;;6129912;23;20021;-77
2022/11/15 09:12:02;;;;;;;84.22;33.83;;;10.20;99.90;;;;;;6130008;23;20032;-77
2022/11/15 09:14:28;;;;;;;85.50;34.28;;;10.20;99.90;;;;;;6155877;23;20057;-77
2022/11/15 09:16:53;;;;;;;80.55;33.92;;;10.30;99.90;;;;;;6156429;23;20048;-77
2022/11/15 09:19:19;;;;;;;77.07;33.25;;;10.20;99.90;;;;;;6156046;23;20450;-77
2022/11/15 09:21:44;;;;;;;83.70;33.05;;;10.30;99.90;;;;;;6156138;23;20097;-76
2022/11/15 09:24:10;;;;;;;84.85;33.65;;;10.30;99.90;;;;;;6156283;23;20084;-77
2022/11/15 09:26:36;;;;;;;87.68;33.25;;;10.40;99.90;;;;;;6156441;23;20017;-76
2022/11/15 09:29:02;;;;;;;73.45;31.45;;;10.30;99.90;;;;;;6129855;23;20442;-77
2022/11/15 09:31:29;;;;;;;68.50;31.52;;;10.40;99.90;;;;;;6156458;23;20225;-77
2022/11/15 09:33:55;;;;;;;75.22;31.23;;;10.40;99.90;;;;;;6129829;23;20017;-77
2022/11/15 09:36:20;;;;;;;66.57;30.50;;;10.50;99.90;;;;;;6156280;23;20029;-77
2022/11/15 09:38:46;;;;;;;73.00;32.00;;;10.40;99.90;;;;;;6155773;23;20021;-77
2022/11/15 09:41:12;;;;;;;70.75;29.73;;;10.50;99.90;;;;;;6155773;23;20017;-76
2022/11/15 09:44:15;;;;;;;70.47;30.98;;;10.60;99.90;;;;;;6156235;23;20464;-77
2022/11/15 09:47:15;;;;;;;62.50;28.40;;;10.60;99.90;;;;;;6155857;23;20387;-77
2022/11/15 09:49:41;;;;;;;67.38;28.05;;;10.60;99.90;;;;;;6156221;23;20017;-77
2022/11/15 09:52:08;;;;;;;65.00;29.88;;;10.60;99.90;;;;;;6129734;23;20025;-77
2022/11/15 09:54:37;;;;;;;69.97;29.92;;;10.60;99.90;;;;;;6129727;23;20018;-75
2022/11/15 09:57:09;;;;;;;64.13;29.92;;;10.70;99.90;;;;;;6155693;23;20461;-74
2022/11/15 09:59:46;;;;;;;65.50;27.90;;;10.70;99.90;;;;;;6129631;23;20025;-74
2022/11/15 10:02:43;;;;;;;63.75;29.10;;;10.70;99.90;;;;;;6155893;23;20028;-75
2022/11/15 10:05:14;;;;;;;62.25;28.02;;;10.80;99.90;;;;;;6156120;23;20057;-74
2022/11/15 10:07:55;;;;;;;63.47;28.50;;;10.80;99.90;;;;;;6129614;23;20097;-75
2022/11/15 10:10:43;;;;;;;64.85;29.13;;;10.90;99.90;;;;;;6129650;23;20024;-75
2022/11/15 10:13:21;;;;;;;61.35;28.08;;;10.90;99.90;;;;;;6155455;23;20333;-74
2022/11/15 10:15:48;;;;;;;55.28;26.88;;;11.00;99.90;;;;;;6129846;23;20028;-74
2022/11/15 10:18:19;;;;;;;56.92;28.33;;;11.00;99.90;;;;;;6131607;23;20096;-74
2022/11/15 10:20:52;;;;;;;57.92;26.55;;;11.00;99.90;;;;;;6131727;23;20021;-76
2022/11/15 10:23:20;;;;;;;;;;;11.00;99.90;;;;;;6132152;23;20022;-76
2022/11/15 10:25:46;;;;;;;55.22;25.48;;;11.10;99.90;;;;;;6131652;23;19968;-75
2022/11/15 10:28:21;;;;;;;56.63;26.75;;;11.10;99.90;;;;;;6157988;23;20014;-76
2022/11/15 10:30:49;;;;;;;59.47;28.10;;;11.10;99.90;;;;;;6157918;23;20018;-76
2022/11/15 10:33:36;;;;;;;54.72;26.23;;;11.10;99.90;;;;;;6131486;23;20057;-76
2022/11/15 10:36:20;;;;;;;58.15;28.33;;;11.20;99.90;;;;;;6157946;23;20021;-76
2022/11/15 10:38:49;;;;;;;52.70;27.70;;;11.20;99.90;;;;;;6157832;23;20022;-77
2022/11/15 10:41:17;;;;;;;58.72;26.45;;;11.20;99.90;;;;;;6157682;23;20018;-76
2022/11/15 10:43:43;;;;;;;54.40;26.08;;;11.20;99.90;;;;;;6131530;23;20021;-76
2022/11/15 10:46:24;;;;;;;53.90;26.90;;;11.20;99.90;;;;;;6157266;23;20018;-76
2022/11/15 10:48:50;;;;;;;57.38;26.75;;;11.30;99.90;;;;;;6157656;23;20087;-76
2022/11/15 10:51:28;;;;;;;58.42;25.80;;;11.40;99.90;;;;;;6157791;23;20014;-76
2022/11/15 10:53:57;;;;;;;56.33;26.63;;;11.40;99.90;;;;;;6157137;23;20028;-76
2022/11/15 10:56:26;;;;;;;54.65;27.17;;;11.30;99.90;;;;;;6131405;23;20014;-76
2022/11/15 10:58:55;;;;;;;58.50;26.58;;;11.40;99.90;;;;;;6131327;23;20049;-76
2022/11/15 11:01:26;;;;;;;53.20;28.50;;;11.40;99.90;;;;;;6157646;23;20013;-76
2022/11/15 11:03:59;;;;;;;51.25;25.92;;;11.30;99.90;;;;;;6157795;23;20022;-76
2022/11/15 11:06:26;;;;;;;54.47;26.52;;;11.40;99.90;;;;;;6157505;23;20018;-76
2022/11/15 11:08:54;;;;;;;52.53;25.42;;;11.50;99.90;;;;;;6130999;23;20096;-76
2022/11/15 11:11:19;;;;;;;50.53;24.60;;;11.60;99.90;;;;;;6157594;23;20088;-76
2022/11/15 11:13:45;;;;;;;52.28;27.13;;;11.50;99.90;;;;;;6157426;23;20454;-76
2022/11/15 11:16:13;;;;;;;50.80;26.10;;;11.60;99.90;;;;;;6131222;23;20140;-76
2022/11/15 11:19:16;;;;;;;50.45;25.63;;;11.60;99.90;;;;;;6157144;23;20529;-76
2022/11/15 11:21:49;;;;;;;53.30;23.55;;;11.60;99.90;;;;;;6131028;23;20445;-76
2022/11/15 11:24:25;;;;;;;;;;;11.60;99.90;;;;;;6131632;23;20024;-76
2022/11/15 11:27:28;;;;;;;49.22;23.60;;;11.70;99.90;;;;;;6157183;23;19924;-76
2022/11/15 11:30:09;;;;;;;;;;;11.60;99.90;;;;;;6132059;23;20017;-76
2022/11/15 11:33:02;;;;;;;49.00;22.60;;;11.60;99.90;;;;;;6156996;23;19917;-76
2022/11/15 11:35:59;;;;;;;47.75;22.98;;;11.60;99.90;;;;;;6156331;23;20025;-76
2022/11/15 11:38:39;;;;;;;37.65;20.65;;;11.60;99.90;;;;;;6003758;23;20034;-76
2022/11/15 11:41:26;;;;;;;40.60;21.85;;;11.70;99.90;;;;;;6156120;23;20061;-76
2022/11/15 11:44:22;;;;;;;44.30;21.27;;;11.70;99.90;;;;;;6157335;23;20072;-76
2022/11/15 11:47:02;;;;;;;38.22;19.77;;;11.70;99.90;;;;;;6130916;23;20028;-76
2022/11/15 11:49:39;;;;;;;35.70;19.20;;;11.70;99.90;;;;;;6157265;23;20055;-76
2022/11/15 11:52:16;;;;;;;39.67;18.85;;;11.70;99.90;;;;;;6157230;23;20014;-81
2022/11/15 11:55:14;;;;;;;42.72;19.35;;;11.70;99.90;;;;;;6130812;23;20542;-80
2022/11/15 11:57:54;;;;;;;37.17;17.20;;;11.80;99.90;;;;;;6130803;23;20025;-81
2022/11/15 12:00:27;;;;;;;32.60;15.65;;;11.70;99.90;;;;;;6130679;23;20024;-80
2022/11/15 12:03:12;;;;;;;34.60;14.55;;;11.70;99.90;;;;;;6130772;23;20026;-83
2022/11/15 12:05:49;;;;;;;34.15;15.07;;;11.80;99.90;;;;;;6156857;23;20455;-81
2022/11/15 12:08:40;;;;;;;28.20;13.15;;;11.70;99.90;;;;;;6130637;23;20355;-82
2022/11/15 12:11:13;;;;;;;26.40;12.02;;;11.70;99.90;;;;;;6130577;23;20389;-83
2022/11/15 12:13:39;;;;;;;29.92;12.48;;;11.70;99.90;;;;;;6130389;23;20022;-81
2022/11/15 12:16:16;;;;;;;26.25;11.45;;;11.80;99.90;;;;;;6130663;23;20037;-82
2022/11/15 12:18:48;;;;;;;23.25;10.85;;;11.70;99.90;;;;;;6130754;23;20025;-81
2022/11/15 12:21:25;;;;;;;23.15;10.73;;;11.70;99.90;;;;;;6130724;23;20021;-81
2022/11/15 12:23:57;;;;;;;24.05;10.68;;;11.70;99.90;;;;;;6130580;23;20345;-82
2022/11/15 12:26:32;;;;;;;23.38;10.10;;;11.70;99.90;;;;;;6130472;23;20040;-83
2022/11/15 12:29:27;;;;;;;22.83;11.07;;;11.70;99.90;;;;;;6156807;23;20022;-86
2022/11/15 12:31:56;;;;;;;23.55;9.80;;;11.70;99.90;;;;;;6156494;23;20438;-76
2022/11/15 12:34:22;;;;;;;19.48;11.68;;;11.70;99.90;;;;;;6130388;23;20013;-76
2022/11/15 12:36:49;;;;;;;19.77;10.30;;;11.80;99.90;;;;;;6130316;23;20076;-77
2022/11/15 12:39:16;;;;;;;21.70;10.57;;;11.80;99.90;;;;;;6130014;23;20059;-76
2022/11/15 12:42:03;;;;;;;26.83;11.45;;;11.80;99.90;;;;;;6156800;23;20013;-76
2022/11/15 12:44:31;;;;;;;20.88;10.38;;;11.80;99.90;;;;;;6110567;23;20028;-76
2022/11/15 12:46:57;;;;;;;26.40;10.13;;;11.90;99.90;;;;;;6130393;23;20025;-76
2022/11/15 12:49:22;;;;;;;22.00;10.82;;;12.00;99.90;;;;;;6130641;23;20101;-76
2022/11/15 12:51:48;;;;;;;16.73;8.65;;;12.10;99.90;;;;;;6156323;23;20029;-76
2022/11/15 12:54:23;;;;;;;16.73;9.02;;;12.20;99.90;;;;;;6156138;23;20018;-76
2022/11/15 12:57:06;;;;;;;15.68;8.23;;;12.30;99.90;;;;;;6156375;23;20049;-76
2022/11/15 13:00:03;;;;;;;17.08;8.65;;;12.30;99.90;;;;;;6156654;23;20017;-76
2022/11/15 13:02:31;;;;;;;18.23;7.90;;;12.30;99.90;;;;;;6156721;23;20017;-76